createdAt,value
2022-09-10T00:01:27.598Z,1.90
2022-09-10T00:03:56.484Z,1.55
2022-09-10T00:06:26.093Z,1.67
2022-09-10T00:08:54.083Z,1.60
2022-09-10T00:11:20.861Z,1.52
2022-09-10T00:13:49.172Z,1.48
2022-09-10T00:16:19.114Z,2.15
2022-09-10T00:18:47.564Z,2.13
2022-09-10T00:21:18.356Z,1.95
2022-09-10T00:23:45.697Z,2.38
2022-09-10T00:26:34.613Z,2.10
2022-09-10T00:29:02.121Z,2.10
2022-09-10T00:31:30.844Z,2.13
2022-09-10T00:33:59.373Z,2.20
2022-09-10T00:36:36.111Z,2.38
2022-09-10T00:39:06.913Z,2.10
2022-09-10T00:41:36.673Z,2.58
2022-09-10T00:44:26.629Z,2.50
2022-09-10T00:46:54.626Z,2.25
2022-09-10T00:49:44.771Z,2.47
2022-09-10T00:54:42.271Z,2.60
2022-09-10T00:57:13.577Z,2.80
2022-09-10T00:59:43.774Z,3.15
2022-09-10T01:02:12.119Z,2.40
2022-09-10T01:04:39.456Z,2.90
2022-09-10T01:07:09.802Z,2.63
2022-09-10T01:09:38.025Z,2.92
2022-09-10T01:12:19.911Z,2.67
2022-09-10T01:15:15.719Z,2.75
2022-09-10T01:18:11.815Z,3.17
2022-09-10T01:21:00.033Z,3.63
2022-09-10T01:23:39.620Z,3.40
2022-09-10T01:26:12.154Z,3.33
2022-09-10T01:28:59.988Z,3.38
2022-09-10T01:32:03.037Z,3.30
2022-09-10T01:34:35.727Z,3.30
2022-09-10T01:37:11.208Z,4.88
2022-09-10T01:39:39.380Z,4.95
2022-09-10T01:42:06.913Z,4.63
2022-09-10T01:44:42.998Z,5.55
2022-09-10T01:47:52.466Z,6.07
2022-09-10T01:50:39.343Z,6.40
2022-09-10T01:53:30.996Z,6.10
2022-09-10T01:56:19.609Z,6.63
2022-09-10T01:58:46.510Z,4.93
2022-09-10T02:01:35.114Z,4.80
2022-09-10T02:04:06.623Z,4.90
2022-09-10T02:06:36.450Z,4.85
2022-09-10T02:09:04.238Z,5.15
2022-09-10T02:11:32.304Z,6.20
2022-09-10T02:13:59.054Z,6.85
2022-09-10T02:16:33.476Z,6.07
2022-09-10T02:19:02.034Z,5.97
2022-09-10T02:21:28.822Z,4.80
2022-09-10T02:23:59.237Z,4.35
2022-09-10T02:26:25.946Z,4.63
2022-09-10T02:28:52.581Z,6.07
2022-09-10T02:31:19.328Z,5.15
2022-09-10T02:33:46.159Z,5.50
2022-09-10T02:36:13.057Z,5.72
2022-09-10T02:38:40.420Z,6.55
2022-09-10T02:41:09.572Z,5.45
2022-09-10T02:43:38.184Z,6.13
2022-09-10T02:46:08.922Z,6.38
2022-09-10T02:48:35.549Z,6.30
2022-09-10T02:51:02.853Z,6.57
2022-09-10T02:53:31.599Z,6.82
2022-09-10T02:55:58.408Z,7.00
2022-09-10T02:58:25.096Z,6.75
2022-09-10T03:00:51.871Z,6.60
2022-09-10T03:03:18.551Z,6.65
2022-09-10T03:05:45.367Z,6.45
2022-09-10T03:08:12.026Z,6.38
2022-09-10T03:10:39.293Z,5.80
2022-09-10T03:13:06.800Z,5.78
2022-09-10T03:15:33.529Z,6.05
2022-09-10T03:18:00.215Z,6.20
2022-09-10T03:20:27.523Z,6.22
2022-09-10T03:22:54.167Z,6.85
2022-09-10T03:25:22.633Z,8.20
2022-09-10T03:27:49.387Z,8.88
2022-09-10T03:30:16.315Z,9.48
2022-09-10T03:32:43.232Z,9.57
2022-09-10T03:35:10.174Z,9.65
2022-09-10T03:37:36.839Z,10.07
2022-09-10T03:40:04.487Z,10.63
2022-09-10T03:42:31.413Z,10.73
2022-09-10T03:44:58.144Z,9.95
2022-09-10T03:47:24.978Z,9.57
2022-09-10T03:49:51.628Z,9.10
2022-09-10T03:52:18.557Z,9.02
2022-09-10T03:54:45.605Z,8.75
2022-09-10T03:57:13.121Z,8.25
2022-09-10T03:59:41.185Z,8.15
2022-09-10T04:02:11.853Z,8.68
2022-09-10T04:04:38.617Z,8.40
2022-09-10T04:07:05.354Z,8.27
2022-09-10T04:09:32.599Z,8.32
2022-09-10T04:12:00.106Z,7.75
2022-09-10T04:14:27.081Z,8.40
2022-09-10T04:16:53.856Z,8.18
2022-09-10T04:19:20.851Z,7.95
2022-09-10T04:21:48.396Z,8.02
2022-09-10T04:24:15.058Z,8.27
2022-09-10T04:26:41.733Z,7.63
2022-09-10T04:29:08.463Z,7.35
2022-09-10T04:31:35.202Z,7.90
2022-09-10T04:34:01.923Z,7.85
2022-09-10T04:36:29.336Z,7.90
2022-09-10T04:38:56.059Z,7.55
2022-09-10T04:41:23.553Z,7.82
2022-09-10T04:43:50.170Z,7.75
2022-09-10T04:46:17.647Z,7.32
2022-09-10T04:48:44.416Z,7.68
2022-09-10T04:51:17.797Z,6.93
2022-09-10T04:53:46.010Z,6.60
2022-09-10T04:56:13.218Z,6.75
2022-09-10T04:58:41.083Z,7.10
2022-09-10T05:01:08.359Z,7.20
2022-09-10T05:03:35.282Z,6.82
2022-09-10T05:06:02.244Z,8.15
2022-09-10T05:08:29.569Z,7.68
2022-09-10T05:10:56.433Z,7.88
2022-09-10T05:13:24.221Z,6.95
2022-09-10T05:15:50.967Z,7.32
2022-09-10T05:18:17.768Z,7.47
2022-09-10T05:20:47.138Z,7.22
2022-09-10T05:23:13.788Z,7.20
2022-09-10T05:25:42.966Z,6.93
2022-09-10T05:28:09.752Z,7.35
2022-09-10T05:30:36.936Z,7.45
2022-09-10T05:33:04.119Z,6.95
2022-09-10T05:35:31.006Z,7.05
2022-09-10T05:37:57.775Z,7.68
2022-09-10T05:40:25.399Z,6.78
2022-09-10T05:42:54.191Z,7.40
2022-09-10T05:45:24.832Z,7.28
2022-09-10T05:47:52.947Z,7.45
2022-09-10T05:50:20.073Z,7.18
2022-09-10T05:52:47.032Z,6.65
2022-09-10T05:55:14.306Z,6.95
2022-09-10T05:57:41.494Z,6.80
2022-09-10T06:00:09.862Z,6.82
2022-09-10T06:02:36.963Z,6.68
2022-09-10T06:05:04.287Z,7.63
2022-09-10T06:07:31.251Z,6.97
2022-09-10T06:09:57.930Z,6.75
2022-09-10T06:12:24.731Z,7.07
2022-09-10T06:14:51.363Z,6.60
2022-09-10T06:17:18.453Z,7.05
2022-09-10T06:19:46.264Z,6.72
2022-09-10T06:22:13.599Z,6.63
2022-09-10T06:24:40.543Z,6.50
2022-09-10T06:27:07.282Z,7.00
2022-09-10T06:29:36.127Z,6.35
2022-09-10T06:32:03.603Z,6.93
2022-09-10T06:34:30.322Z,6.55
2022-09-10T06:36:58.275Z,6.30
2022-09-10T06:39:25.091Z,6.60
2022-09-10T06:41:53.177Z,7.15
2022-09-10T06:44:22.156Z,7.00
2022-09-10T06:47:42.746Z,7.45
2022-09-10T06:49:36.486Z,7.68
2022-09-10T06:52:03.608Z,7.20
2022-09-10T06:54:30.315Z,7.18
2022-09-10T06:56:57.868Z,8.18
2022-09-10T06:59:24.688Z,6.82
2022-09-10T07:01:51.718Z,7.55
2022-09-10T07:04:18.596Z,7.07
2022-09-10T07:06:47.622Z,7.00
2022-09-10T07:09:14.902Z,7.03
2022-09-10T07:11:42.000Z,7.03
2022-09-10T07:14:12.871Z,7.30
2022-09-10T07:16:44.647Z,6.80
2022-09-10T07:19:15.158Z,6.95
2022-09-10T07:21:42.082Z,7.05
2022-09-10T07:24:10.691Z,8.15
2022-09-10T07:26:37.751Z,6.70
2022-09-10T07:29:04.898Z,6.60
2022-09-10T07:31:38.225Z,6.88
2022-09-10T07:34:05.400Z,5.60
2022-09-10T07:36:32.058Z,6.13
2022-09-10T07:39:01.717Z,5.60
2022-09-10T07:41:34.272Z,5.93
2022-09-10T07:44:04.103Z,6.00
2022-09-10T07:46:30.788Z,5.88
2022-09-10T07:48:59.833Z,6.60
2022-09-10T07:51:29.130Z,6.15
2022-09-10T07:53:58.021Z,5.47
2022-09-10T07:56:25.168Z,5.38
2022-09-10T07:58:53.823Z,4.55
2022-09-10T08:01:21.436Z,4.07
2022-09-10T08:03:48.543Z,4.45
2022-09-10T08:06:16.242Z,4.20
2022-09-10T08:08:43.257Z,4.22
2022-09-10T08:11:12.939Z,4.40
2022-09-10T08:13:50.632Z,4.28
2022-09-10T08:16:20.406Z,4.05
2022-09-10T08:18:48.706Z,4.00
2022-09-10T08:21:17.927Z,3.50
2022-09-10T08:23:51.785Z,3.75
2022-09-10T08:26:18.935Z,3.70
2022-09-10T08:28:46.545Z,3.17
2022-09-10T08:31:13.872Z,3.28
2022-09-10T08:33:40.546Z,2.85
2022-09-10T08:36:10.432Z,2.55
2022-09-10T08:38:39.956Z,2.47
2022-09-10T08:41:23.288Z,3.22
2022-09-10T08:43:58.559Z,2.20
2022-09-10T08:46:29.405Z,2.60
2022-09-10T08:49:14.342Z,2.08
2022-09-10T08:51:44.181Z,2.17
2022-09-10T08:54:16.206Z,1.80
2022-09-10T08:56:43.783Z,1.75
2022-09-10T08:59:33.631Z,2.03
2022-09-10T09:02:26.253Z,2.72
2022-09-10T09:05:18.941Z,1.75
2022-09-10T09:07:48.494Z,1.65
2022-09-10T09:10:24.635Z,1.20
2022-09-10T09:13:36.965Z,1.60
2022-09-10T09:16:03.834Z,1.40
2022-09-10T09:18:45.259Z,1.70
2022-09-10T09:21:17.080Z,1.20
2022-09-10T09:24:13.707Z,1.80
2022-09-10T09:26:44.970Z,1.50
2022-09-10T09:31:53.965Z,1.52
2022-09-10T09:34:44.240Z,1.52
2022-09-10T09:37:18.290Z,1.95
2022-09-10T09:40:07.180Z,1.33
2022-09-10T09:42:45.909Z,1.58
2022-09-10T09:45:37.465Z,1.20
2022-09-10T09:48:06.862Z,1.67
2022-09-10T09:50:37.204Z,1.85
2022-09-10T09:53:03.944Z,1.77
2022-09-10T09:55:41.622Z,1.77
2022-09-10T09:58:21.071Z,1.58
2022-09-10T10:01:05.152Z,1.45
2022-09-10T10:03:42.574Z,1.50
2022-09-10T10:06:11.662Z,1.23
2022-09-10T10:08:41.484Z,1.40
2022-09-10T10:11:09.247Z,1.20
2022-09-10T10:13:38.489Z,1.50
2022-09-10T10:16:21.145Z,1.70
2022-09-10T10:18:48.758Z,1.35
2022-09-10T10:21:22.241Z,1.50
2022-09-10T10:23:49.674Z,1.42
2022-09-10T10:26:33.808Z,1.40
2022-09-10T10:29:20.579Z,2.38
2022-09-10T10:31:49.536Z,1.63
2022-09-10T10:34:25.276Z,1.70
2022-09-10T10:37:14.266Z,3.70
2022-09-10T10:40:05.459Z,1.77
2022-09-10T10:42:38.688Z,2.75
2022-09-10T10:45:18.383Z,1.77
2022-09-10T10:47:51.217Z,2.20
2022-09-10T10:50:39.928Z,1.63
2022-09-10T10:53:43.888Z,1.83
2022-09-10T10:56:32.422Z,1.70
2022-09-10T10:59:07.106Z,2.70
2022-09-10T11:01:42.236Z,1.63
2022-09-10T11:04:34.580Z,2.00
2022-09-10T11:07:12.759Z,1.52
2022-09-10T11:09:58.964Z,1.50
2022-09-10T11:12:36.002Z,1.73
2022-09-10T11:17:42.439Z,1.73
2022-09-10T11:20:29.479Z,2.17
2022-09-10T11:23:14.815Z,1.67
2022-09-10T11:25:55.037Z,1.40
2022-09-10T11:28:26.522Z,1.63
2022-09-10T11:31:05.076Z,1.55
2022-09-10T11:33:46.125Z,2.53
2022-09-10T11:36:23.365Z,1.70
2022-09-10T11:39:14.281Z,1.55
2022-09-10T11:41:43.854Z,1.20
2022-09-10T11:44:47.133Z,1.30
2022-09-10T11:47:29.415Z,1.45
2022-09-10T11:50:34.532Z,1.30
2022-09-10T11:53:03.903Z,1.40
2022-09-10T11:55:47.475Z,1.40
2022-09-10T11:58:38.851Z,1.50
2022-09-10T12:01:11.871Z,1.55
2022-09-10T12:03:44.772Z,1.70
2022-09-10T12:06:31.365Z,1.55
2022-09-10T12:09:09.299Z,2.10
2022-09-10T12:11:47.489Z,1.98
2022-09-10T12:14:17.097Z,1.55
2022-09-10T12:16:54.965Z,2.35
2022-09-10T12:19:31.281Z,1.65
2022-09-10T12:22:05.436Z,1.92
2022-09-10T12:24:35.074Z,2.28
2022-09-10T12:27:05.098Z,2.17
2022-09-10T12:29:40.275Z,2.22
2022-09-10T12:32:28.528Z,2.20
2022-09-10T12:35:35.692Z,2.20
2022-09-10T12:38:57.039Z,2.17
2022-09-10T12:41:23.866Z,2.30
2022-09-10T12:44:00.168Z,2.65
2022-09-10T12:46:28.260Z,2.80
2022-09-10T12:48:58.270Z,2.72
2022-09-10T12:51:28.199Z,2.95
2022-09-10T12:54:03.939Z,3.83
2022-09-10T12:57:09.570Z,3.30
2022-09-10T13:00:11.337Z,3.28
2022-09-10T13:02:49.442Z,3.50
2022-09-10T13:05:40.036Z,3.90
2022-09-10T13:08:26.282Z,4.28
2022-09-10T13:10:59.628Z,5.00
2022-09-10T13:13:44.412Z,4.93
2022-09-10T13:16:18.445Z,5.53
2022-09-10T13:18:46.646Z,5.25
2022-09-10T13:21:25.698Z,5.40
2022-09-10T13:23:54.765Z,5.63
2022-09-10T13:26:38.338Z,6.43
2022-09-10T13:29:11.320Z,5.95
2022-09-10T13:31:45.024Z,6.28
2022-09-10T13:34:27.310Z,7.22
2022-09-10T13:37:03.980Z,7.70
2022-09-10T13:40:01.214Z,8.70
2022-09-10T13:43:05.430Z,7.05
2022-09-10T13:45:50.673Z,6.30
2022-09-10T13:48:46.880Z,6.85
2022-09-10T13:51:36.212Z,6.28
2022-09-10T13:54:36.148Z,6.60
2022-09-10T13:57:38.413Z,7.47
2022-09-10T14:00:07.010Z,6.70
2022-09-10T14:02:45.940Z,7.10
2022-09-10T14:05:48.649Z,6.65
2022-09-10T14:08:26.531Z,7.60
2022-09-10T14:10:53.263Z,6.53
2022-09-10T14:13:28.259Z,9.07
2022-09-10T14:15:58.549Z,7.28
2022-09-10T14:18:31.855Z,8.15
2022-09-10T14:21:00.085Z,8.07
2022-09-10T14:23:29.511Z,7.97
2022-09-10T14:26:14.450Z,8.68
2022-09-10T14:28:52.087Z,10.02
2022-09-10T14:31:37.496Z,8.70
2022-09-10T14:34:24.659Z,9.02
2022-09-10T14:36:51.418Z,9.68
2022-09-10T14:39:20.343Z,10.35
2022-09-10T14:41:48.506Z,10.82
2022-09-10T14:44:22.182Z,11.07
2022-09-10T14:46:57.547Z,10.48
2022-09-10T14:49:30.717Z,11.50
2022-09-10T14:51:59.853Z,12.05
2022-09-10T14:54:26.928Z,11.95
2022-09-10T14:56:56.310Z,12.13
2022-09-10T14:59:25.979Z,12.30
2022-09-10T15:01:53.066Z,13.77
2022-09-10T15:04:26.269Z,13.52
2022-09-10T15:06:54.423Z,13.15
2022-09-10T15:09:21.828Z,13.00
2022-09-10T15:11:56.386Z,13.88
2022-09-10T15:14:24.859Z,13.68
2022-09-10T15:16:54.957Z,13.90
2022-09-10T15:19:22.924Z,13.13
2022-09-10T15:21:50.467Z,13.70
2022-09-10T15:24:22.593Z,13.20
2022-09-10T15:26:49.819Z,12.95
2022-09-10T15:29:17.743Z,16.00
2022-09-10T15:31:44.644Z,15.43
2022-09-10T15:34:12.227Z,15.13
2022-09-10T15:36:40.616Z,15.38
2022-09-10T15:39:11.173Z,14.50
2022-09-10T15:41:42.770Z,14.07
2022-09-10T15:44:10.156Z,15.85
2022-09-10T15:46:40.702Z,14.95
2022-09-10T15:49:07.962Z,15.63
2022-09-10T15:51:34.626Z,15.73
2022-09-10T15:54:04.999Z,14.70
2022-09-10T15:56:32.563Z,18.25
2022-09-10T15:58:59.554Z,15.07
2022-09-10T16:01:28.793Z,14.55
2022-09-10T16:03:57.904Z,16.70
2022-09-10T16:06:31.477Z,14.02
2022-09-10T16:09:01.894Z,14.95
2022-09-10T16:11:33.343Z,16.23
2022-09-10T16:14:04.712Z,15.60
2022-09-10T16:16:33.295Z,16.23
2022-09-10T16:19:00.714Z,15.68
2022-09-10T16:21:32.790Z,14.88
2022-09-10T16:24:00.939Z,13.93
2022-09-10T16:26:34.493Z,13.50
2022-09-10T16:29:05.822Z,13.73
2022-09-10T16:31:35.096Z,14.18
2022-09-10T16:34:04.737Z,14.48
2022-09-10T16:36:33.724Z,13.60
2022-09-10T16:39:05.073Z,13.43
2022-09-10T16:41:33.021Z,13.98
2022-09-10T16:44:00.696Z,13.93
2022-09-10T16:46:28.100Z,12.40
2022-09-10T16:48:55.762Z,13.05
2022-09-10T16:51:24.434Z,13.13
2022-09-10T16:54:05.913Z,13.38
2022-09-10T16:56:39.442Z,12.90
2022-09-10T16:59:09.851Z,13.27
2022-09-10T17:01:37.419Z,14.30
2022-09-10T17:04:04.879Z,13.00
2022-09-10T17:06:31.995Z,14.07
2022-09-10T17:09:00.622Z,13.43
2022-09-10T17:11:31.371Z,13.60
2022-09-10T17:14:01.291Z,13.20
2022-09-10T17:16:32.591Z,12.65
2022-09-10T17:18:59.256Z,12.95
2022-09-10T17:21:27.478Z,12.88
2022-09-10T17:23:55.689Z,14.25
2022-09-10T17:26:24.190Z,13.77
2022-09-10T17:28:55.574Z,13.68
2022-09-10T17:31:23.054Z,15.30
2022-09-10T17:33:51.501Z,12.82
2022-09-10T17:36:18.714Z,13.85
2022-09-10T17:38:46.167Z,14.50
2022-09-10T17:41:14.566Z,15.05
2022-09-10T17:43:43.022Z,15.75
2022-09-10T17:46:12.545Z,19.38
2022-09-10T17:48:39.478Z,18.30
2022-09-10T17:51:07.195Z,19.77
2022-09-10T17:53:34.848Z,18.92
2022-09-10T17:56:07.191Z,18.88
2022-09-10T17:58:34.146Z,18.42
2022-09-10T18:01:02.546Z,19.67
2022-09-10T18:03:29.374Z,20.13
2022-09-10T18:05:56.991Z,18.02
2022-09-10T18:08:23.796Z,18.33
2022-09-10T18:10:50.842Z,18.58
2022-09-10T18:13:19.461Z,19.10
2022-09-10T18:15:46.415Z,18.25
2022-09-10T18:18:14.062Z,18.00
2022-09-10T18:20:40.936Z,17.58
2022-09-10T18:23:07.612Z,17.80
2022-09-10T18:25:34.305Z,17.15
2022-09-10T18:28:03.755Z,17.45
2022-09-10T18:30:30.757Z,17.40
2022-09-10T18:32:57.670Z,17.42
2022-09-10T18:35:24.364Z,17.02
2022-09-10T18:37:51.992Z,16.60
2022-09-10T18:40:19.613Z,16.77
2022-09-10T18:42:49.251Z,16.98
2022-09-10T18:45:18.997Z,16.23
2022-09-10T18:47:47.762Z,16.55
2022-09-10T18:50:17.460Z,16.20
2022-09-10T18:52:47.261Z,15.80
2022-09-10T18:55:17.003Z,16.05
2022-09-10T18:57:47.123Z,16.02
2022-09-10T19:00:16.327Z,15.82
2022-09-10T19:02:43.586Z,16.55
2022-09-10T19:05:14.191Z,15.55
2022-09-10T19:07:43.923Z,15.27
2022-09-10T19:10:13.631Z,15.30
2022-09-10T19:12:43.791Z,16.30
2022-09-10T19:15:13.551Z,16.35
2022-09-10T19:17:40.345Z,17.30
2022-09-10T19:20:10.259Z,17.15
2022-09-10T19:22:40.916Z,16.27
2022-09-10T19:25:10.774Z,16.48
2022-09-10T19:27:41.010Z,17.05
2022-09-10T19:30:11.395Z,16.60
2022-09-10T19:32:40.567Z,16.77
2022-09-10T19:35:11.297Z,17.55
2022-09-10T19:37:41.186Z,16.50
2022-09-10T19:40:11.908Z,16.45
2022-09-10T19:42:41.617Z,17.77
2022-09-10T19:45:12.234Z,17.88
2022-09-10T19:47:40.279Z,18.00
2022-09-10T19:50:08.689Z,17.65
2022-09-10T19:52:38.969Z,17.77
2022-09-10T19:55:09.242Z,17.42
2022-09-10T19:57:39.080Z,17.65
2022-09-10T20:00:17.197Z,16.65
2022-09-10T20:03:01.408Z,17.02
2022-09-10T20:05:34.086Z,18.35
2022-09-10T20:08:04.690Z,18.55
2022-09-10T20:10:34.335Z,18.05
2022-09-10T20:13:04.849Z,17.85
2022-09-10T20:15:42.299Z,18.10
2022-09-10T20:18:14.784Z,18.50
2022-09-10T20:20:46.218Z,18.67
2022-09-10T20:23:16.094Z,19.05
2022-09-10T20:25:45.995Z,19.52
2022-09-10T20:28:16.570Z,19.73
2022-09-10T20:30:46.318Z,19.95
2022-09-10T20:33:16.750Z,19.70
2022-09-10T20:35:46.417Z,19.90
2022-09-10T20:38:16.388Z,21.98
2022-09-10T20:40:46.240Z,20.80
2022-09-10T20:43:16.132Z,22.45
2022-09-10T20:45:46.692Z,20.15
2022-09-10T20:48:16.392Z,20.65
2022-09-10T20:50:54.963Z,20.48
2022-09-10T20:53:23.430Z,20.40
2022-09-10T20:56:03.064Z,21.63
2022-09-10T20:58:37.044Z,20.23
2022-09-10T21:01:13.766Z,19.63
2022-09-10T21:03:41.273Z,21.17
2022-09-10T21:06:12.643Z,20.52
2022-09-10T21:11:16.895Z,19.50
2022-09-10T21:13:46.213Z,19.45
2022-09-10T21:16:28.199Z,19.88
2022-09-10T21:19:04.225Z,22.15
2022-09-10T21:21:35.602Z,19.92
2022-09-10T21:26:43.087Z,19.80
2022-09-10T21:29:18.073Z,19.85
2022-09-10T21:31:50.599Z,21.80
2022-09-10T21:34:20.609Z,21.25
2022-09-10T21:36:51.005Z,21.23
2022-09-10T21:39:20.347Z,20.52
2022-09-10T21:41:50.738Z,20.73
2022-09-10T21:44:22.075Z,22.13
2022-09-10T21:46:50.125Z,21.30
2022-09-10T21:49:20.426Z,21.08
2022-09-10T21:51:49.460Z,21.98
2022-09-10T21:54:21.279Z,19.88
2022-09-10T21:56:51.064Z,21.13
2022-09-10T21:59:21.351Z,19.88
2022-09-10T22:01:50.430Z,20.67
2022-09-10T22:04:22.837Z,20.27
2022-09-10T22:06:50.908Z,19.83
2022-09-10T22:09:20.716Z,19.83
2022-09-10T22:11:51.835Z,19.35
2022-09-10T22:14:21.801Z,20.33
2022-09-10T22:16:52.228Z,19.88
2022-09-10T22:19:23.674Z,20.48
2022-09-10T22:21:57.366Z,20.75
2022-09-10T22:24:26.295Z,20.85
2022-09-10T22:26:55.542Z,19.83
2022-09-10T22:29:25.222Z,19.98
2022-09-10T22:31:54.651Z,19.63
2022-09-10T22:34:24.527Z,19.88
2022-09-10T22:36:53.905Z,20.17
2022-09-10T22:39:23.269Z,22.92
2022-09-10T22:41:52.774Z,19.15
2022-09-10T22:44:23.077Z,20.13
2022-09-10T22:46:52.025Z,19.60
2022-09-10T22:49:21.873Z,19.52
2022-09-10T22:51:51.272Z,21.15
2022-09-10T22:54:20.372Z,20.55
2022-09-10T22:56:49.395Z,20.17
2022-09-10T22:59:18.963Z,19.58
2022-09-10T23:01:48.478Z,19.02
2022-09-10T23:04:17.632Z,17.95
2022-09-10T23:06:47.011Z,20.67
2022-09-10T23:09:18.248Z,19.20
2022-09-10T23:11:47.246Z,19.83
2022-09-10T23:14:19.350Z,20.30
2022-09-10T23:16:49.987Z,20.52
2022-09-10T23:19:24.201Z,21.95
2022-09-10T23:21:55.299Z,19.73
2022-09-10T23:24:24.904Z,19.52
2022-09-10T23:29:24.113Z,19.00
2022-09-10T23:31:54.439Z,19.23
2022-09-10T23:34:23.134Z,20.40
2022-09-10T23:36:52.930Z,20.08
2022-09-10T23:39:23.886Z,19.58
2022-09-10T23:41:56.714Z,21.17
2022-09-10T23:44:25.942Z,21.35
2022-09-10T23:46:58.103Z,19.67
2022-09-10T23:49:27.587Z,20.98
2022-09-10T23:51:57.222Z,20.55
2022-09-10T23:54:29.095Z,21.67
2022-09-10T23:56:57.113Z,22.70
2022-09-10T23:59:25.789Z,22.33
